AZV311 UWKD-UUWW
Flight info
| Callsign | AZV311 |
|---|---|
| Flight time | 1h 23m |
| Altitude | 36000 |
| Route | APTAR1G APTAR L158 DIMGI DIMGI3B |
| Aircraft | B752/M-SDE2E3FGHIJ3J4J7RWXY/LB1 |
Departure
| Time | 2026-05-07 18:54 |
|---|---|
| Airport | Kazan International Airport (UWKD) |
Arrival
| Time | 2026-05-07 20:17 |
|---|---|
| Airport | Vnukovo International Airport (UUWW) |
| Time | Latitude | Longitude | Altitude | Speed | Heading |
|---|---|---|---|---|---|
| 2026-05-07 18:07 | 55.60704 | 49.29592 | 421 ft | 0 kts | 35° |
| 2026-05-07 18:08 | 55.60677 | 49.29663 | 421 ft | 0 kts | 34° |
| 2026-05-07 18:39 | 55.60684 | 49.29671 | 420 ft | 3 kts | 34° |
| 2026-05-07 18:40 | 55.60708 | 49.29691 | 420 ft | 3 kts | 3° |
| 2026-05-07 18:40 | 55.60736 | 49.29673 | 420 ft | 4 kts | 321° |
| 2026-05-07 18:40 | 55.60757 | 49.29623 | 420 ft | 6 kts | 305° |
| 2026-05-07 18:40 | 55.60784 | 49.29558 | 420 ft | 6 kts | 305° |
| 2026-05-07 18:41 | 55.60809 | 49.29487 | 420 ft | 6 kts | 290° |
| 2026-05-07 18:41 | 55.60800 | 49.29417 | 420 ft | 6 kts | 227° |
| 2026-05-07 18:41 | 55.60748 | 49.29349 | 420 ft | 11 kts | 214° |
| 2026-05-07 18:41 | 55.60672 | 49.29259 | 420 ft | 14 kts | 212° |
| 2026-05-07 18:42 | 55.60593 | 49.29143 | 420 ft | 13 kts | 236° |
| 2026-05-07 18:42 | 55.60577 | 49.29011 | 420 ft | 7 kts | 274° |
| 2026-05-07 18:42 | 55.60581 | 49.28917 | 420 ft | 7 kts | 274° |
| 2026-05-07 18:42 | 55.60585 | 49.28801 | 420 ft | 11 kts | 273° |
| 2026-05-07 18:43 | 55.60592 | 49.28646 | 420 ft | 14 kts | 284° |
| 2026-05-07 18:43 | 55.60643 | 49.28493 | 420 ft | 15 kts | 305° |
| 2026-05-07 18:43 | 55.60706 | 49.28330 | 420 ft | 16 kts | 304° |
| 2026-05-07 18:43 | 55.60777 | 49.28146 | 420 ft | 19 kts | 304° |
| 2026-05-07 18:44 | 55.60851 | 49.27951 | 420 ft | 18 kts | 304° |
| 2026-05-07 18:44 | 55.60930 | 49.27751 | 420 ft | 19 kts | 304° |
| 2026-05-07 18:44 | 55.61009 | 49.27543 | 420 ft | 21 kts | 303° |
| 2026-05-07 18:44 | 55.61089 | 49.27334 | 420 ft | 20 kts | 303° |
| 2026-05-07 18:45 | 55.61161 | 49.27148 | 420 ft | 17 kts | 304° |
| 2026-05-07 18:45 | 55.61212 | 49.27009 | 420 ft | 6 kts | 293° |
| 2026-05-07 18:45 | 55.61216 | 49.26983 | 420 ft | 0 kts | 274° |
| 2026-05-07 18:48 | 55.61216 | 49.26963 | 420 ft | 3 kts | 267° |
| 2026-05-07 18:48 | 55.61206 | 49.26918 | 420 ft | 4 kts | 233° |
| 2026-05-07 18:48 | 55.61178 | 49.26878 | 420 ft | 5 kts | 215° |
| 2026-05-07 18:49 | 55.61172 | 49.26870 | 420 ft | 0 kts | 215° |
| 2026-05-07 18:51 | 55.61160 | 49.26855 | 420 ft | 5 kts | 214° |
| 2026-05-07 18:51 | 55.61111 | 49.26797 | 420 ft | 10 kts | 207° |
| 2026-05-07 18:52 | 55.61039 | 49.26820 | 420 ft | 10 kts | 126° |
| 2026-05-07 18:52 | 55.61036 | 49.26826 | 420 ft | 0 kts | 124° |
| 2026-05-07 18:53 | 55.61035 | 49.26828 | 420 ft | 1 kts | 124° |
| 2026-05-07 18:53 | 55.61022 | 49.26862 | 420 ft | 5 kts | 125° |
| 2026-05-07 18:53 | 55.60890 | 49.27204 | 421 ft | 69 kts | 126° |
| 2026-05-07 18:54 | 55.60486 | 49.28242 | 421 ft | 136 kts | 124° |
| 2026-05-07 18:54 | 55.59859 | 49.29889 | 623 ft | 177 kts | 123° |
| 2026-05-07 18:54 | 55.59159 | 49.31764 | 1263 ft | 185 kts | 123° |
| 2026-05-07 18:54 | 55.58430 | 49.33664 | 1684 ft | 198 kts | 124° |
| 2026-05-07 18:55 | 55.57587 | 49.35786 | 1849 ft | 220 kts | 124° |
| 2026-05-07 18:55 | 55.56699 | 49.38032 | 2308 ft | 225 kts | 124° |
| 2026-05-07 18:55 | 55.55802 | 49.40305 | 2818 ft | 228 kts | 124° |
| 2026-05-07 18:55 | 55.54716 | 49.42387 | 3083 ft | 242 kts | 146° |
| 2026-05-07 18:56 | 55.53087 | 49.43347 | 3201 ft | 261 kts | 176° |
| 2026-05-07 18:56 | 55.51284 | 49.42703 | 3465 ft | 272 kts | 205° |
| 2026-05-07 18:56 | 55.49714 | 49.40806 | 3804 ft | 278 kts | 215° |
| 2026-05-07 18:56 | 55.48147 | 49.38794 | 4185 ft | 280 kts | 213° |
| 2026-05-07 18:57 | 55.46544 | 49.36850 | 4551 ft | 282 kts | 212° |
| 2026-05-07 18:57 | 55.44910 | 49.34897 | 4916 ft | 285 kts | 212° |
| 2026-05-07 18:57 | 55.43278 | 49.32970 | 5260 ft | 287 kts | 212° |
| 2026-05-07 18:57 | 55.41722 | 49.30775 | 5597 ft | 289 kts | 230° |
| 2026-05-07 18:58 | 55.40803 | 49.27665 | 5911 ft | 288 kts | 258° |
| 2026-05-07 18:58 | 55.40719 | 49.24191 | 6229 ft | 287 kts | 276° |
| 2026-05-07 18:58 | 55.40907 | 49.20685 | 6562 ft | 287 kts | 276° |
| 2026-05-07 18:58 | 55.41099 | 49.17219 | 6886 ft | 288 kts | 277° |
| 2026-05-07 18:59 | 55.41318 | 49.13698 | 7204 ft | 289 kts | 277° |
| 2026-05-07 18:59 | 55.41541 | 49.10236 | 7514 ft | 289 kts | 278° |
| 2026-05-07 18:59 | 55.41776 | 49.06679 | 7830 ft | 290 kts | 278° |
| 2026-05-07 18:59 | 55.42008 | 49.03183 | 8016 ft | 293 kts | 277° |
| 2026-05-07 19:00 | 55.42247 | 48.99616 | 8045 ft | 291 kts | 277° |
| 2026-05-07 19:00 | 55.42478 | 48.96136 | 8493 ft | 285 kts | 277° |
| 2026-05-07 19:00 | 55.42707 | 48.92676 | 8849 ft | 285 kts | 277° |
| 2026-05-07 19:00 | 55.42936 | 48.89193 | 9131 ft | 287 kts | 276° |
| 2026-05-07 19:01 | 55.43166 | 48.85702 | 9402 ft | 288 kts | 277° |
| 2026-05-07 19:01 | 55.43394 | 48.82216 | 9661 ft | 289 kts | 277° |
| 2026-05-07 19:01 | 55.43623 | 48.78709 | 9910 ft | 290 kts | 277° |
| 2026-05-07 19:01 | 55.43853 | 48.75160 | 10154 ft | 291 kts | 277° |
| 2026-05-07 19:02 | 55.44083 | 48.71611 | 10204 ft | 299 kts | 277° |
| 2026-05-07 19:02 | 55.44320 | 48.67930 | 10244 ft | 304 kts | 277° |
| 2026-05-07 19:02 | 55.44559 | 48.64188 | 10408 ft | 305 kts | 277° |
| 2026-05-07 19:02 | 55.44791 | 48.60533 | 10555 ft | 305 kts | 277° |
| 2026-05-07 19:03 | 55.45027 | 48.56802 | 10712 ft | 305 kts | 277° |
| 2026-05-07 19:03 | 55.45354 | 48.53114 | 10863 ft | 304 kts | 287° |
| 2026-05-07 19:03 | 55.45969 | 48.49565 | 11038 ft | 303 kts | 288° |
| 2026-05-07 19:03 | 55.46576 | 48.46046 | 11185 ft | 303 kts | 288° |
| 2026-05-07 19:04 | 55.47192 | 48.42485 | 11318 ft | 304 kts | 288° |
| 2026-05-07 19:04 | 55.47809 | 48.38929 | 11477 ft | 304 kts | 288° |
| 2026-05-07 19:04 | 55.48432 | 48.35333 | 11561 ft | 306 kts | 288° |
| 2026-05-07 19:04 | 55.49049 | 48.31767 | 11752 ft | 304 kts | 287° |
| 2026-05-07 19:05 | 55.49669 | 48.28178 | 11839 ft | 306 kts | 287° |
| 2026-05-07 19:05 | 55.50280 | 48.24632 | 11979 ft | 306 kts | 287° |
| 2026-05-07 19:05 | 55.50897 | 48.21053 | 12095 ft | 306 kts | 287° |
| 2026-05-07 19:05 | 55.51514 | 48.17461 | 12205 ft | 307 kts | 287° |
| 2026-05-07 19:06 | 55.52139 | 48.13817 | 12285 ft | 308 kts | 287° |
| 2026-05-07 19:06 | 55.53366 | 48.06641 | 12514 ft | 308 kts | 287° |
| 2026-05-07 19:06 | 55.53988 | 48.02993 | 12621 ft | 309 kts | 287° |
| 2026-05-07 19:07 | 55.54601 | 47.99390 | 12747 ft | 308 kts | 287° |
| 2026-05-07 19:07 | 55.55222 | 47.95736 | 12819 ft | 310 kts | 287° |
| 2026-05-07 19:07 | 55.55839 | 47.92087 | 12958 ft | 309 kts | 287° |
| 2026-05-07 19:07 | 55.56446 | 47.88505 | 13068 ft | 309 kts | 287° |
| 2026-05-07 19:08 | 55.57064 | 47.84839 | 13150 ft | 310 kts | 287° |
| 2026-05-07 19:08 | 55.57681 | 47.81175 | 13255 ft | 311 kts | 287° |
| 2026-05-07 19:08 | 55.58297 | 47.77506 | 13517 ft | 320 kts | 287° |
| 2026-05-07 19:08 | 55.58939 | 47.73681 | 13985 ft | 334 kts | 287° |
| 2026-05-07 19:09 | 55.59614 | 47.69647 | 14246 ft | 354 kts | 287° |
| 2026-05-07 19:09 | 55.60326 | 47.65379 | 14456 ft | 373 kts | 287° |
| 2026-05-07 19:09 | 55.61067 | 47.60931 | 14957 ft | 381 kts | 287° |
| 2026-05-07 19:09 | 55.61805 | 47.56485 | 15680 ft | 384 kts | 287° |
| 2026-05-07 19:10 | 55.62559 | 47.51932 | 16311 ft | 388 kts | 286° |
| 2026-05-07 19:10 | 55.63315 | 47.47358 | 16990 ft | 391 kts | 286° |
| 2026-05-07 19:10 | 55.64081 | 47.42707 | 17586 ft | 395 kts | 286° |
| 2026-05-07 19:10 | 55.64845 | 47.38050 | 18234 ft | 397 kts | 286° |
| 2026-05-07 19:11 | 55.65618 | 47.33339 | 18799 ft | 402 kts | 285° |
| 2026-05-07 19:11 | 55.66394 | 47.28593 | 19441 ft | 404 kts | 285° |
| 2026-05-07 19:11 | 55.67179 | 47.23771 | 19979 ft | 409 kts | 285° |
| 2026-05-07 19:11 | 55.67963 | 47.18947 | 20548 ft | 412 kts | 285° |
| 2026-05-07 19:12 | 55.68756 | 47.14050 | 21131 ft | 415 kts | 285° |
| 2026-05-07 19:12 | 55.69553 | 47.09127 | 21663 ft | 419 kts | 285° |
| 2026-05-07 19:12 | 55.70347 | 47.04212 | 22199 ft | 422 kts | 284° |
| 2026-05-07 19:12 | 55.71155 | 46.99190 | 22767 ft | 425 kts | 284° |
| 2026-05-07 19:13 | 55.71963 | 46.94149 | 23261 ft | 428 kts | 284° |
| 2026-05-07 19:13 | 55.72774 | 46.89078 | 23729 ft | 432 kts | 285° |
| 2026-05-07 19:13 | 55.73595 | 46.83924 | 24262 ft | 435 kts | 285° |
| 2026-05-07 19:13 | 55.74415 | 46.78771 | 24818 ft | 438 kts | 285° |
| 2026-05-07 19:14 | 55.75235 | 46.73598 | 25330 ft | 441 kts | 285° |
| 2026-05-07 19:14 | 55.76070 | 46.68314 | 25908 ft | 442 kts | 285° |
| 2026-05-07 19:14 | 55.76891 | 46.63097 | 26349 ft | 446 kts | 285° |
| 2026-05-07 19:14 | 55.77725 | 46.57786 | 26864 ft | 448 kts | 285° |
| 2026-05-07 19:15 | 55.78572 | 46.52378 | 27326 ft | 451 kts | 285° |
| 2026-05-07 19:15 | 55.79262 | 46.46979 | 27809 ft | 452 kts | 278° |
| 2026-05-07 19:15 | 55.79539 | 46.41432 | 28147 ft | 457 kts | 274° |
| 2026-05-07 19:15 | 55.79749 | 46.35791 | 28637 ft | 458 kts | 274° |
| 2026-05-07 19:16 | 55.79953 | 46.30076 | 29001 ft | 462 kts | 273° |
| 2026-05-07 19:16 | 55.80146 | 46.24432 | 29474 ft | 463 kts | 273° |
| 2026-05-07 19:16 | 55.80336 | 46.18663 | 29818 ft | 467 kts | 273° |
| 2026-05-07 19:16 | 55.80520 | 46.12953 | 30191 ft | 469 kts | 273° |
| 2026-05-07 19:17 | 55.80702 | 46.07140 | 30637 ft | 470 kts | 273° |
| 2026-05-07 19:17 | 55.80880 | 46.01359 | 31033 ft | 472 kts | 273° |
| 2026-05-07 19:17 | 55.81053 | 45.95617 | 31556 ft | 470 kts | 274° |
| 2026-05-07 19:17 | 55.81226 | 45.89814 | 31958 ft | 471 kts | 274° |
| 2026-05-07 19:18 | 55.81395 | 45.84036 | 32383 ft | 471 kts | 274° |
| 2026-05-07 19:18 | 55.81562 | 45.78191 | 32906 ft | 468 kts | 274° |
| 2026-05-07 19:18 | 55.81724 | 45.72455 | 33197 ft | 471 kts | 274° |
| 2026-05-07 19:18 | 55.81884 | 45.66680 | 33690 ft | 468 kts | 274° |
| 2026-05-07 19:19 | 55.82040 | 45.60953 | 34111 ft | 467 kts | 274° |
| 2026-05-07 19:19 | 55.82194 | 45.55224 | 34451 ft | 467 kts | 274° |
| 2026-05-07 19:19 | 55.82345 | 45.49469 | 34863 ft | 466 kts | 274° |
| 2026-05-07 19:19 | 55.82493 | 45.43758 | 35229 ft | 463 kts | 274° |
| 2026-05-07 19:20 | 55.82641 | 45.37997 | 35552 ft | 461 kts | 274° |
| 2026-05-07 19:20 | 55.82780 | 45.32377 | 35856 ft | 460 kts | 273° |
| 2026-05-07 19:20 | 55.83055 | 45.21044 | 35911 ft | 457 kts | 273° |
| 2026-05-07 19:21 | 55.83317 | 45.09796 | 35902 ft | 457 kts | 273° |
| 2026-05-07 19:21 | 55.83569 | 44.98502 | 35901 ft | 459 kts | 273° |
| 2026-05-07 19:22 | 55.83818 | 44.87181 | 35909 ft | 458 kts | 273° |
| 2026-05-07 19:22 | 55.84058 | 44.75897 | 35903 ft | 457 kts | 273° |
| 2026-05-07 19:23 | 55.84288 | 44.64635 | 35894 ft | 458 kts | 273° |
| 2026-05-07 19:23 | 55.84507 | 44.53339 | 35899 ft | 459 kts | 273° |
| 2026-05-07 19:24 | 55.84716 | 44.42052 | 35906 ft | 459 kts | 273° |
| 2026-05-07 19:24 | 55.84917 | 44.30676 | 35901 ft | 461 kts | 272° |
| 2026-05-07 19:25 | 55.85107 | 44.19280 | 35895 ft | 461 kts | 273° |
| 2026-05-07 19:25 | 55.85285 | 44.07976 | 35900 ft | 461 kts | 273° |
| 2026-05-07 19:26 | 55.85455 | 43.96566 | 35889 ft | 462 kts | 273° |
| 2026-05-07 19:26 | 55.85614 | 43.85167 | 35894 ft | 461 kts | 273° |
| 2026-05-07 19:27 | 55.85762 | 43.73816 | 35884 ft | 462 kts | 272° |
| 2026-05-07 19:27 | 55.85900 | 43.62389 | 35885 ft | 462 kts | 272° |
| 2026-05-07 19:28 | 55.86026 | 43.51020 | 35884 ft | 462 kts | 272° |
| 2026-05-07 19:28 | 55.86149 | 43.39648 | 35879 ft | 461 kts | 272° |
| 2026-05-07 19:29 | 55.86263 | 43.28253 | 35881 ft | 461 kts | 271° |
| 2026-05-07 19:29 | 55.86365 | 43.16902 | 35879 ft | 461 kts | 271° |
| 2026-05-07 19:30 | 55.86459 | 43.05489 | 35875 ft | 461 kts | 271° |
| 2026-05-07 19:30 | 55.86541 | 42.94080 | 35881 ft | 463 kts | 271° |
| 2026-05-07 19:31 | 55.86612 | 42.82619 | 35881 ft | 460 kts | 271° |
| 2026-05-07 19:31 | 55.86673 | 42.71300 | 35875 ft | 461 kts | 271° |
| 2026-05-07 19:32 | 55.86723 | 42.59953 | 35880 ft | 461 kts | 271° |
| 2026-05-07 19:32 | 55.86762 | 42.48612 | 35873 ft | 458 kts | 271° |
| 2026-05-07 19:33 | 55.86792 | 42.37278 | 35873 ft | 459 kts | 271° |
| 2026-05-07 19:33 | 55.86811 | 42.25946 | 35873 ft | 457 kts | 270° |
| 2026-05-07 19:34 | 55.86820 | 42.14708 | 35875 ft | 455 kts | 270° |
| 2026-05-07 19:34 | 55.86818 | 42.03527 | 35877 ft | 455 kts | 270° |
| 2026-05-07 19:35 | 55.86807 | 41.92323 | 35861 ft | 454 kts | 270° |
| 2026-05-07 19:35 | 55.86784 | 41.81030 | 35867 ft | 454 kts | 270° |
| 2026-05-07 19:36 | 55.86534 | 41.69849 | 35867 ft | 456 kts | 268° |
| 2026-05-07 19:36 | 55.86197 | 41.58612 | 35870 ft | 456 kts | 268° |
| 2026-05-07 19:37 | 55.85852 | 41.47426 | 35868 ft | 453 kts | 268° |
| 2026-05-07 19:37 | 55.85498 | 41.36203 | 35881 ft | 455 kts | 268° |
| 2026-05-07 19:38 | 55.85133 | 41.24979 | 35879 ft | 455 kts | 267° |
| 2026-05-07 19:38 | 55.84760 | 41.13791 | 35883 ft | 454 kts | 267° |
| 2026-05-07 19:39 | 55.84376 | 41.02593 | 35884 ft | 456 kts | 267° |
| 2026-05-07 19:39 | 55.83979 | 40.91314 | 35891 ft | 454 kts | 267° |
| 2026-05-07 19:40 | 55.83576 | 40.80163 | 35890 ft | 456 kts | 267° |
| 2026-05-07 19:40 | 55.83161 | 40.68949 | 35885 ft | 454 kts | 267° |
| 2026-05-07 19:41 | 55.82731 | 40.57792 | 35891 ft | 454 kts | 267° |
| 2026-05-07 19:41 | 55.82280 | 40.46594 | 35901 ft | 453 kts | 267° |
| 2026-05-07 19:42 | 55.81826 | 40.35523 | 35897 ft | 451 kts | 267° |
| 2026-05-07 19:42 | 55.81354 | 40.24312 | 35903 ft | 453 kts | 266° |
| 2026-05-07 19:43 | 55.80878 | 40.13223 | 35902 ft | 452 kts | 266° |
| 2026-05-07 19:43 | 55.80391 | 40.02111 | 35910 ft | 452 kts | 266° |
| 2026-05-07 19:44 | 55.79897 | 39.91058 | 35896 ft | 449 kts | 266° |
| 2026-05-07 19:44 | 55.79377 | 39.80001 | 35739 ft | 447 kts | 265° |
| 2026-05-07 19:45 | 55.79017 | 39.74489 | 35580 ft | 454 kts | 264° |
| 2026-05-07 19:45 | 55.78652 | 39.69020 | 35955 ft | 442 kts | 264° |
| 2026-05-07 19:45 | 55.78294 | 39.63676 | 36147 ft | 428 kts | 264° |
| 2026-05-07 19:45 | 55.77948 | 39.58544 | 35663 ft | 421 kts | 264° |
| 2026-05-07 19:46 | 55.77600 | 39.53386 | 34388 ft | 426 kts | 264° |
| 2026-05-07 19:46 | 55.77248 | 39.48196 | 33182 ft | 425 kts | 264° |
| 2026-05-07 19:46 | 55.76901 | 39.43122 | 32408 ft | 410 kts | 264° |
| 2026-05-07 19:46 | 55.76552 | 39.38057 | 31857 ft | 421 kts | 264° |
| 2026-05-07 19:47 | 55.76192 | 39.32883 | 31191 ft | 438 kts | 263° |
| 2026-05-07 19:47 | 55.75811 | 39.27449 | 30443 ft | 441 kts | 263° |
| 2026-05-07 19:47 | 55.75435 | 39.22131 | 29722 ft | 439 kts | 263° |
| 2026-05-07 19:47 | 55.75059 | 39.16831 | 29273 ft | 425 kts | 263° |
| 2026-05-07 19:48 | 55.74692 | 39.11709 | 29096 ft | 407 kts | 263° |
| 2026-05-07 19:48 | 55.74339 | 39.06792 | 28639 ft | 399 kts | 263° |
| 2026-05-07 19:48 | 55.73988 | 39.01925 | 28117 ft | 393 kts | 263° |
| 2026-05-07 19:48 | 55.73644 | 38.97191 | 27726 ft | 383 kts | 263° |
| 2026-05-07 19:49 | 55.73302 | 38.92530 | 27111 ft | 376 kts | 262° |
| 2026-05-07 19:49 | 55.72951 | 38.87975 | 26621 ft | 369 kts | 262° |
| 2026-05-07 19:49 | 55.72606 | 38.83517 | 26171 ft | 370 kts | 262° |
| 2026-05-07 19:49 | 55.72252 | 38.78951 | 25717 ft | 374 kts | 262° |
| 2026-05-07 19:50 | 55.71899 | 38.74435 | 25259 ft | 373 kts | 262° |
| 2026-05-07 19:50 | 55.71547 | 38.69946 | 24828 ft | 367 kts | 262° |
| 2026-05-07 19:50 | 55.71209 | 38.65477 | 24346 ft | 366 kts | 262° |
| 2026-05-07 19:50 | 55.70873 | 38.61012 | 23851 ft | 363 kts | 262° |
| 2026-05-07 19:51 | 55.70538 | 38.56587 | 23384 ft | 359 kts | 262° |
| 2026-05-07 19:51 | 55.70210 | 38.52272 | 22950 ft | 355 kts | 262° |
| 2026-05-07 19:51 | 55.69878 | 38.47940 | 22532 ft | 354 kts | 262° |
| 2026-05-07 19:51 | 55.69550 | 38.43656 | 22093 ft | 353 kts | 262° |
| 2026-05-07 19:52 | 55.69223 | 38.39384 | 21623 ft | 350 kts | 262° |
| 2026-05-07 19:52 | 55.68899 | 38.35157 | 21172 ft | 344 kts | 261° |
| 2026-05-07 19:52 | 55.68574 | 38.30957 | 20732 ft | 340 kts | 261° |
| 2026-05-07 19:52 | 55.68256 | 38.26852 | 20323 ft | 337 kts | 261° |
| 2026-05-07 19:53 | 55.67937 | 38.22767 | 19923 ft | 335 kts | 260° |
| 2026-05-07 19:53 | 55.67610 | 38.18680 | 19643 ft | 329 kts | 260° |
| 2026-05-07 19:53 | 55.67291 | 38.14727 | 19541 ft | 328 kts | 260° |
| 2026-05-07 19:53 | 55.66965 | 38.10715 | 19448 ft | 333 kts | 260° |
| 2026-05-07 19:54 | 55.66634 | 38.06650 | 19324 ft | 333 kts | 260° |
| 2026-05-07 19:54 | 55.66305 | 38.02604 | 19193 ft | 330 kts | 260° |
| 2026-05-07 19:54 | 55.65971 | 37.98551 | 19087 ft | 329 kts | 260° |
| 2026-05-07 19:54 | 55.65639 | 37.94521 | 18963 ft | 330 kts | 260° |
| 2026-05-07 19:55 | 55.65315 | 37.90599 | 18933 ft | 316 kts | 260° |
| 2026-05-07 19:55 | 55.64846 | 37.86914 | 18690 ft | 306 kts | 247° |
| 2026-05-07 19:55 | 55.63893 | 37.83651 | 18480 ft | 292 kts | 240° |
| 2026-05-07 19:55 | 55.62906 | 37.80561 | 18276 ft | 286 kts | 241° |
| 2026-05-07 19:56 | 55.61910 | 37.77453 | 18085 ft | 295 kts | 240° |
| 2026-05-07 19:56 | 55.60885 | 37.74293 | 17866 ft | 299 kts | 240° |
| 2026-05-07 19:56 | 55.59851 | 37.71117 | 17638 ft | 295 kts | 240° |
| 2026-05-07 19:56 | 55.58840 | 37.68030 | 17387 ft | 292 kts | 240° |
| 2026-05-07 19:57 | 55.57826 | 37.64944 | 17143 ft | 290 kts | 240° |
| 2026-05-07 19:57 | 55.56810 | 37.61863 | 16901 ft | 289 kts | 239° |
| 2026-05-07 19:57 | 55.55522 | 37.59110 | 16667 ft | 290 kts | 221° |
| 2026-05-07 19:57 | 55.53789 | 37.57307 | 16363 ft | 298 kts | 204° |
| 2026-05-07 19:58 | 55.51762 | 37.56510 | 15967 ft | 302 kts | 192° |
| 2026-05-07 19:58 | 55.49686 | 37.56021 | 15566 ft | 297 kts | 193° |
| 2026-05-07 19:58 | 55.47650 | 37.55531 | 15109 ft | 294 kts | 193° |
| 2026-05-07 19:58 | 55.45667 | 37.55071 | 14789 ft | 288 kts | 192° |
| 2026-05-07 19:59 | 55.43686 | 37.54616 | 14637 ft | 286 kts | 192° |
| 2026-05-07 19:59 | 55.41712 | 37.54167 | 14506 ft | 292 kts | 192° |
| 2026-05-07 19:59 | 55.39695 | 37.53717 | 14362 ft | 293 kts | 192° |
| 2026-05-07 19:59 | 55.37662 | 37.53265 | 14211 ft | 291 kts | 192° |
| 2026-05-07 20:00 | 55.35679 | 37.52835 | 14066 ft | 290 kts | 189° |
| 2026-05-07 20:00 | 55.33625 | 37.52854 | 13851 ft | 297 kts | 182° |
| 2026-05-07 20:00 | 55.31583 | 37.53039 | 13463 ft | 298 kts | 182° |
| 2026-05-07 20:00 | 55.29521 | 37.53213 | 13057 ft | 291 kts | 182° |
| 2026-05-07 20:01 | 55.27529 | 37.53392 | 12827 ft | 281 kts | 183° |
| 2026-05-07 20:01 | 55.25581 | 37.53562 | 12725 ft | 283 kts | 183° |
| 2026-05-07 20:01 | 55.23644 | 37.53735 | 12672 ft | 274 kts | 182° |
| 2026-05-07 20:01 | 55.21785 | 37.53910 | 12377 ft | 263 kts | 182° |
| 2026-05-07 20:02 | 55.20009 | 37.53933 | 12236 ft | 254 kts | 189° |
| 2026-05-07 20:02 | 55.18226 | 37.53761 | 11947 ft | 262 kts | 188° |
| 2026-05-07 20:02 | 55.16388 | 37.53622 | 11594 ft | 264 kts | 188° |
| 2026-05-07 20:02 | 55.14562 | 37.53494 | 11227 ft | 259 kts | 188° |
| 2026-05-07 20:03 | 55.12777 | 37.53371 | 10928 ft | 253 kts | 188° |
| 2026-05-07 20:03 | 55.11053 | 37.53261 | 10718 ft | 251 kts | 188° |
| 2026-05-07 20:03 | 55.09293 | 37.53156 | 10482 ft | 256 kts | 187° |
| 2026-05-07 20:03 | 55.07529 | 37.52930 | 10209 ft | 251 kts | 199° |
| 2026-05-07 20:04 | 55.06060 | 37.51583 | 10013 ft | 229 kts | 230° |
| 2026-05-07 20:04 | 55.05279 | 37.49268 | 10016 ft | 223 kts | 249° |
| 2026-05-07 20:04 | 55.04736 | 37.46655 | 10000 ft | 233 kts | 250° |
| 2026-05-07 20:04 | 55.04236 | 37.43975 | 9990 ft | 233 kts | 252° |
| 2026-05-07 20:05 | 55.03779 | 37.41275 | 9989 ft | 233 kts | 253° |
| 2026-05-07 20:05 | 55.03563 | 37.38443 | 9841 ft | 240 kts | 276° |
| 2026-05-07 20:05 | 55.04198 | 37.35761 | 9723 ft | 248 kts | 305° |
| 2026-05-07 20:05 | 55.05582 | 37.33952 | 9612 ft | 260 kts | 334° |
| 2026-05-07 20:06 | 55.07421 | 37.33527 | 9478 ft | 274 kts | 4° |
| 2026-05-07 20:06 | 55.09273 | 37.34407 | 9293 ft | 278 kts | 11° |
| 2026-05-07 20:06 | 55.11142 | 37.35116 | 9068 ft | 274 kts | 4° |
| 2026-05-07 20:06 | 55.13012 | 37.35547 | 8830 ft | 270 kts | 1° |
| 2026-05-07 20:07 | 55.14877 | 37.35838 | 8606 ft | 268 kts | 359° |
| 2026-05-07 20:07 | 55.16734 | 37.36052 | 8386 ft | 268 kts | 358° |
| 2026-05-07 20:07 | 55.18599 | 37.36220 | 8168 ft | 267 kts | 357° |
| 2026-05-07 20:07 | 55.20439 | 37.36362 | 7951 ft | 266 kts | 357° |
| 2026-05-07 20:08 | 55.22295 | 37.36493 | 7735 ft | 265 kts | 356° |
| 2026-05-07 20:08 | 55.24119 | 37.36600 | 7390 ft | 267 kts | 356° |
| 2026-05-07 20:08 | 55.25978 | 37.36713 | 7078 ft | 263 kts | 356° |
| 2026-05-07 20:08 | 55.27787 | 37.36824 | 6703 ft | 261 kts | 356° |
| 2026-05-07 20:09 | 55.29607 | 37.36931 | 6349 ft | 258 kts | 355° |
| 2026-05-07 20:09 | 55.31305 | 37.36470 | 6039 ft | 243 kts | 328° |
| 2026-05-07 20:09 | 55.32622 | 37.34764 | 5870 ft | 231 kts | 309° |
| 2026-05-07 20:10 | 55.34965 | 37.30763 | 5526 ft | 235 kts | 309° |
| 2026-05-07 20:10 | 55.36111 | 37.28725 | 5366 ft | 232 kts | 308° |
| 2026-05-07 20:10 | 55.37222 | 37.26720 | 5217 ft | 232 kts | 308° |
| 2026-05-07 20:10 | 55.38355 | 37.24643 | 4916 ft | 235 kts | 308° |
| 2026-05-07 20:11 | 55.39475 | 37.22575 | 4633 ft | 230 kts | 308° |
| 2026-05-07 20:11 | 55.40568 | 37.20548 | 4311 ft | 230 kts | 308° |
| 2026-05-07 20:11 | 55.41672 | 37.18500 | 4001 ft | 230 kts | 308° |
| 2026-05-07 20:11 | 55.42750 | 37.16493 | 3739 ft | 228 kts | 308° |
| 2026-05-07 20:12 | 55.43867 | 37.14488 | 3435 ft | 223 kts | 315° |
| 2026-05-07 20:12 | 55.45009 | 37.12799 | 3317 ft | 205 kts | 314° |
| 2026-05-07 20:12 | 55.46030 | 37.11247 | 3230 ft | 187 kts | 314° |
| 2026-05-07 20:12 | 55.47029 | 37.09724 | 3226 ft | 194 kts | 314° |
| 2026-05-07 20:13 | 55.48067 | 37.08157 | 3112 ft | 197 kts | 315° |
| 2026-05-07 20:13 | 55.49124 | 37.06697 | 3015 ft | 191 kts | 329° |
| 2026-05-07 20:13 | 55.50338 | 37.05891 | 3056 ft | 184 kts | 336° |
| 2026-05-07 20:13 | 55.51557 | 37.05123 | 3030 ft | 187 kts | 335° |
| 2026-05-07 20:14 | 55.52822 | 37.04501 | 2902 ft | 197 kts | 353° |
| 2026-05-07 20:14 | 55.54163 | 37.05114 | 2576 ft | 210 kts | 26° |
| 2026-05-07 20:14 | 55.55107 | 37.07012 | 2402 ft | 208 kts | 69° |
| 2026-05-07 20:14 | 55.55479 | 37.09366 | 2256 ft | 192 kts | 72° |
| 2026-05-07 20:15 | 55.55904 | 37.11542 | 1964 ft | 178 kts | 68° |
| 2026-05-07 20:15 | 55.56305 | 37.13431 | 1899 ft | 158 kts | 68° |
| 2026-05-07 20:15 | 55.56700 | 37.15229 | 1676 ft | 154 kts | 68° |
| 2026-05-07 20:15 | 55.57084 | 37.16943 | 1470 ft | 148 kts | 68° |
| 2026-05-07 20:16 | 55.57461 | 37.18607 | 1279 ft | 144 kts | 68° |
| 2026-05-07 20:16 | 55.57834 | 37.20203 | 1115 ft | 140 kts | 68° |
| 2026-05-07 20:16 | 55.58209 | 37.21801 | 939 ft | 140 kts | 70° |
| 2026-05-07 20:16 | 55.58548 | 37.23413 | 730 ft | 140 kts | 71° |
| 2026-05-07 20:17 | 55.58911 | 37.24965 | 641 ft | 136 kts | 69° |
| 2026-05-07 20:17 | 55.59248 | 37.26493 | 649 ft | 112 kts | 72° |
| 2026-05-07 20:17 | 55.59448 | 37.27425 | 660 ft | 55 kts | 67° |
| 2026-05-07 20:17 | 55.59554 | 37.27884 | 667 ft | 36 kts | 65° |
| 2026-05-07 20:18 | 55.59674 | 37.28144 | 674 ft | 15 kts | 39° |
| 2026-05-07 20:18 | 55.59739 | 37.28238 | 677 ft | 0 kts | 38° |
| 2026-05-07 20:19 | 55.59750 | 37.28253 | 677 ft | 4 kts | 38° |
| 2026-05-07 20:19 | 55.59786 | 37.28304 | 679 ft | 7 kts | 38° |
| 2026-05-07 20:19 | 55.59833 | 37.28366 | 680 ft | 9 kts | 28° |
| 2026-05-07 20:19 | 55.59889 | 37.28330 | 681 ft | 10 kts | 307° |
| 2026-05-07 20:20 | 55.59910 | 37.28191 | 680 ft | 7 kts | 272° |
| 2026-05-07 20:20 | 55.59915 | 37.28061 | 677 ft | 13 kts | 279° |
| 2026-05-07 20:20 | 55.59942 | 37.27879 | 671 ft | 11 kts | 302° |
| 2026-05-07 20:20 | 55.60020 | 37.27866 | 670 ft | 13 kts | 26° |
| 2026-05-07 20:21 | 55.60087 | 37.27940 | 672 ft | 9 kts | 35° |
| 2026-05-07 20:21 | 55.60145 | 37.28016 | 672 ft | 9 kts | 37° |
| 2026-05-07 20:21 | 55.60157 | 37.28032 | 673 ft | 0 kts | 37° |